createdAt,value
2022-08-17T00:00:06.923Z,16.52
2022-08-17T00:01:06.961Z,16.46
2022-08-17T00:02:25.155Z,16.49
2022-08-17T00:03:07.914Z,16.43
2022-08-17T00:04:10.733Z,16.52
2022-08-17T00:05:07.931Z,16.49
2022-08-17T00:06:06.891Z,16.37
2022-08-17T00:07:06.901Z,16.52
2022-08-17T00:08:06.877Z,16.39
2022-08-17T00:09:06.870Z,16.42
2022-08-17T00:10:06.893Z,16.44
2022-08-17T00:11:06.884Z,16.46
2022-08-17T00:12:43.237Z,16.51
2022-08-17T00:13:07.866Z,16.52
2022-08-17T00:14:06.844Z,16.51
2022-08-17T00:15:10.314Z,16.58
2022-08-17T00:16:06.849Z,16.58
2022-08-17T00:17:06.831Z,16.54
2022-08-17T00:19:01.941Z,16.59
2022-08-17T00:19:08.868Z,16.58
2022-08-17T00:20:07.821Z,16.52
2022-08-17T00:21:10.374Z,16.47
2022-08-17T00:22:34.207Z,16.43
2022-08-17T00:23:07.803Z,16.34
2022-08-17T00:24:06.805Z,16.40
2022-08-17T00:25:06.762Z,16.26
2022-08-17T00:26:06.786Z,16.24
2022-08-17T00:27:06.887Z,16.22
2022-08-17T00:28:06.759Z,16.32
2022-08-17T00:29:06.772Z,16.25
2022-08-17T00:30:06.782Z,16.28
2022-08-17T00:31:06.743Z,16.21
2022-08-17T00:33:16.005Z,16.26
2022-08-17T00:33:23.430Z,16.21
2022-08-17T00:34:07.794Z,16.18
2022-08-17T00:35:06.723Z,16.13
2022-08-17T00:36:06.727Z,16.16
2022-08-17T00:37:07.004Z,16.13
2022-08-17T00:38:06.711Z,16.10
2022-08-17T00:39:06.873Z,16.10
2022-08-17T00:40:06.736Z,16.05
2022-08-17T00:41:06.695Z,16.08
2022-08-17T00:42:06.692Z,16.03
2022-08-17T00:43:06.713Z,16.05
2022-08-17T00:44:06.676Z,16.08
2022-08-17T00:45:06.656Z,16.06
2022-08-17T00:46:06.732Z,16.08
2022-08-17T00:47:06.666Z,16.05
2022-08-17T00:48:06.687Z,16.03
2022-08-17T00:49:06.654Z,16.00
2022-08-17T00:50:06.649Z,16.09
2022-08-17T00:51:06.647Z,16.00
2022-08-17T00:52:10.880Z,15.98
2022-08-17T00:53:06.638Z,16.08
2022-08-17T00:54:06.632Z,16.08
2022-08-17T00:55:06.614Z,15.95
2022-08-17T00:56:06.612Z,16.02
2022-08-17T00:57:06.590Z,15.95
2022-08-17T00:58:06.598Z,16.06
2022-08-17T00:59:06.635Z,15.95
2022-08-17T01:00:06.586Z,15.98
2022-08-17T01:01:06.615Z,15.88
2022-08-17T01:02:06.587Z,15.93
2022-08-17T01:03:06.558Z,15.90
2022-08-17T01:04:06.565Z,15.87
2022-08-17T01:05:06.658Z,15.88
2022-08-17T01:06:06.559Z,15.80
2022-08-17T01:07:06.562Z,15.90
2022-08-17T01:08:06.539Z,15.83
2022-08-17T01:09:06.555Z,15.81
2022-08-17T01:10:06.583Z,15.85
2022-08-17T01:11:06.528Z,15.80
2022-08-17T01:12:06.532Z,15.73
2022-08-17T01:13:06.520Z,15.80
2022-08-17T01:14:06.507Z,15.66
2022-08-17T01:15:06.492Z,15.62
2022-08-17T01:16:06.590Z,15.76
2022-08-17T01:17:06.474Z,15.76
2022-08-17T01:18:06.498Z,15.77
2022-08-17T01:19:06.475Z,15.76
2022-08-17T01:20:06.472Z,15.72
2022-08-17T01:21:06.575Z,15.63
2022-08-17T01:22:06.471Z,15.59
2022-08-17T01:23:06.466Z,15.65
2022-08-17T01:24:06.443Z,15.69
2022-08-17T01:25:06.446Z,15.72
2022-08-17T01:26:06.435Z,15.70
2022-08-17T01:27:10.533Z,15.65
2022-08-17T01:28:06.442Z,15.56
2022-08-17T01:29:06.439Z,15.56
2022-08-17T01:30:06.426Z,15.60
2022-08-17T01:31:07.415Z,15.50
2022-08-17T01:32:06.420Z,15.52
2022-08-17T01:33:06.413Z,15.54
2022-08-17T01:34:06.401Z,15.56
2022-08-17T01:35:06.387Z,15.51
2022-08-17T01:36:06.384Z,15.60
2022-08-17T01:37:06.378Z,15.52
2022-08-17T01:38:06.408Z,15.56
2022-08-17T01:39:06.380Z,15.48
2022-08-17T01:40:06.460Z,15.52
2022-08-17T01:41:06.358Z,15.51
2022-08-17T01:42:06.372Z,15.50
2022-08-17T01:43:06.371Z,15.45
2022-08-17T01:44:06.352Z,15.51
2022-08-17T01:45:06.352Z,15.48
2022-08-17T01:46:06.327Z,15.50
2022-08-17T01:47:06.336Z,15.59
2022-08-17T01:48:06.344Z,15.43
2022-08-17T01:49:06.317Z,15.52
2022-08-17T01:50:06.305Z,15.52
2022-08-17T01:51:07.314Z,15.65
2022-08-17T01:52:06.315Z,15.69
2022-08-17T01:53:06.295Z,15.70
2022-08-17T01:54:06.296Z,15.73
2022-08-17T01:55:06.296Z,15.63
2022-08-17T01:56:06.263Z,15.65
2022-08-17T01:57:06.264Z,15.59
2022-08-17T01:58:08.128Z,15.62
2022-08-17T01:59:06.288Z,15.59
2022-08-17T02:00:06.352Z,15.58
2022-08-17T02:01:06.298Z,15.50
2022-08-17T02:02:06.245Z,15.52
2022-08-17T02:03:06.260Z,15.48
2022-08-17T02:04:06.238Z,15.62
2022-08-17T02:05:06.221Z,15.56
2022-08-17T02:06:06.218Z,15.54
2022-08-17T02:07:06.209Z,15.59
2022-08-17T02:08:06.244Z,15.60
2022-08-17T02:09:06.201Z,15.58
2022-08-17T02:10:06.195Z,15.60
2022-08-17T02:11:06.191Z,15.52
2022-08-17T02:12:38.986Z,15.47
2022-08-17T02:13:07.213Z,15.47
2022-08-17T02:14:06.190Z,15.51
2022-08-17T02:15:06.174Z,15.44
2022-08-17T02:16:06.160Z,15.44
2022-08-17T02:17:06.156Z,15.36
2022-08-17T02:18:06.175Z,15.33
2022-08-17T02:19:06.183Z,15.30
2022-08-17T02:20:06.163Z,15.36
2022-08-17T02:21:06.120Z,15.30
2022-08-17T02:22:06.125Z,15.32
2022-08-17T02:23:06.143Z,15.26
2022-08-17T02:24:06.130Z,15.23
2022-08-17T02:25:07.101Z,15.19
2022-08-17T02:26:06.101Z,15.15
2022-08-17T02:27:06.104Z,15.17
2022-08-17T02:28:06.087Z,15.25
2022-08-17T02:29:06.066Z,15.23
2022-08-17T02:30:06.095Z,15.12
2022-08-17T02:31:07.081Z,15.14
2022-08-17T02:32:06.077Z,15.12
2022-08-17T02:33:06.249Z,15.11
2022-08-17T02:34:06.055Z,15.07
2022-08-17T02:35:06.172Z,15.15
2022-08-17T02:36:06.056Z,15.15
2022-08-17T02:37:06.047Z,15.15
2022-08-17T02:38:06.033Z,15.17
2022-08-17T02:39:06.027Z,15.15
2022-08-17T02:40:06.125Z,15.19
2022-08-17T02:41:06.038Z,15.15
2022-08-17T02:42:06.011Z,15.12
2022-08-17T02:43:06.016Z,15.17
2022-08-17T02:44:06.031Z,15.11
2022-08-17T02:45:05.993Z,15.10
2022-08-17T02:46:06.126Z,15.14
2022-08-17T02:47:05.968Z,15.12
2022-08-17T02:48:05.984Z,15.11
2022-08-17T02:49:05.980Z,15.10
2022-08-17T02:50:05.963Z,14.99
2022-08-17T02:51:05.973Z,14.99
2022-08-17T02:52:05.996Z,15.03
2022-08-17T02:53:06.019Z,15.08
2022-08-17T02:54:41.442Z,14.97
2022-08-17T02:55:06.935Z,14.97
2022-08-17T02:56:05.931Z,15.07
2022-08-17T02:57:05.970Z,15.01
2022-08-17T02:58:05.928Z,15.10
2022-08-17T02:59:05.904Z,15.01
2022-08-17T03:00:05.918Z,15.03
2022-08-17T03:01:05.927Z,14.99
2022-08-17T03:02:05.948Z,15.05
2022-08-17T03:03:05.937Z,15.08
2022-08-17T03:04:05.883Z,15.07
2022-08-17T03:05:05.888Z,15.05
2022-08-17T03:06:05.879Z,14.96
2022-08-17T03:07:05.871Z,14.96
2022-08-17T03:08:05.900Z,14.90
2022-08-17T03:09:05.865Z,14.89
2022-08-17T03:10:05.853Z,14.92
2022-08-17T03:11:05.842Z,14.86
2022-08-17T03:12:05.855Z,14.87
2022-08-17T03:13:05.875Z,14.82
2022-08-17T03:14:05.867Z,14.78
2022-08-17T03:15:05.828Z,14.86
2022-08-17T03:16:05.836Z,14.78
2022-08-17T03:17:05.832Z,14.79
2022-08-17T03:18:05.810Z,14.79
2022-08-17T03:19:06.035Z,14.79
2022-08-17T03:20:05.812Z,14.87
2022-08-17T03:21:05.802Z,14.87
2022-08-17T03:22:36.504Z,14.90
2022-08-17T03:23:06.790Z,14.92
2022-08-17T03:24:08.703Z,14.78
2022-08-17T03:25:05.824Z,14.82
2022-08-17T03:26:05.769Z,14.70
2022-08-17T03:27:05.761Z,14.74
2022-08-17T03:28:05.751Z,14.67
2022-08-17T03:29:05.746Z,14.79
2022-08-17T03:30:05.852Z,14.73
2022-08-17T03:31:05.734Z,14.66
2022-08-17T03:32:05.735Z,14.63
2022-08-17T03:33:05.719Z,14.66
2022-08-17T03:34:05.717Z,14.58
2022-08-17T03:35:05.707Z,14.58
2022-08-17T03:36:05.720Z,14.55
2022-08-17T03:37:05.686Z,14.63
2022-08-17T03:38:05.694Z,14.66
2022-08-17T03:39:05.697Z,14.61
2022-08-17T03:40:05.787Z,14.66
2022-08-17T03:41:05.707Z,14.56
2022-08-17T03:42:05.686Z,14.58
2022-08-17T03:43:05.671Z,14.55
2022-08-17T03:44:05.668Z,14.45
2022-08-17T03:45:05.643Z,14.58
2022-08-17T03:46:05.846Z,14.58
2022-08-17T03:47:06.766Z,14.53
2022-08-17T03:48:05.667Z,14.56
2022-08-17T03:49:05.636Z,14.58
2022-08-17T03:50:10.338Z,14.48
2022-08-17T03:51:05.632Z,14.41
2022-08-17T03:52:05.646Z,14.44
2022-08-17T03:53:05.613Z,14.49
2022-08-17T03:54:05.606Z,14.46
2022-08-17T03:55:05.606Z,14.51
2022-08-17T03:56:05.612Z,14.45
2022-08-17T03:57:05.603Z,14.44
2022-08-17T03:58:05.659Z,14.56
2022-08-17T03:59:05.578Z,14.48
2022-08-17T04:00:05.583Z,14.41
2022-08-17T04:01:05.619Z,14.49
2022-08-17T04:02:05.615Z,14.55
2022-08-17T04:03:05.595Z,14.48
2022-08-17T04:04:05.548Z,14.45
2022-08-17T04:05:05.560Z,14.51
2022-08-17T04:06:05.593Z,14.41
2022-08-17T04:07:05.562Z,14.46
2022-08-17T04:08:05.515Z,14.45
2022-08-17T04:09:05.588Z,14.40
2022-08-17T04:10:05.545Z,14.30
2022-08-17T04:11:05.515Z,14.46
2022-08-17T04:12:05.661Z,14.38
2022-08-17T04:13:05.501Z,14.45
2022-08-17T04:14:05.515Z,14.40
2022-08-17T04:15:06.507Z,14.46
2022-08-17T04:16:05.488Z,14.44
2022-08-17T04:17:05.500Z,14.49
2022-08-17T04:18:07.354Z,14.49
2022-08-17T04:19:05.474Z,14.45
2022-08-17T04:20:05.551Z,14.48
2022-08-17T04:21:05.458Z,14.55
2022-08-17T04:22:05.473Z,14.46
2022-08-17T04:23:05.457Z,14.49
2022-08-17T04:24:05.447Z,14.46
2022-08-17T04:25:05.562Z,14.34
2022-08-17T04:26:05.434Z,14.41
2022-08-17T04:27:05.444Z,14.36
2022-08-17T04:28:05.428Z,14.51
2022-08-17T04:29:06.429Z,14.46
2022-08-17T04:30:05.398Z,14.49
2022-08-17T04:31:05.506Z,14.53
2022-08-17T04:32:05.402Z,14.51
2022-08-17T04:33:07.285Z,14.55
2022-08-17T04:34:06.381Z,14.51
2022-08-17T04:35:05.399Z,14.63
2022-08-17T04:36:05.487Z,14.64
2022-08-17T04:37:05.397Z,14.69
2022-08-17T04:38:05.361Z,14.66
2022-08-17T04:39:05.427Z,14.70
2022-08-17T04:40:05.397Z,14.78
2022-08-17T04:41:05.359Z,14.74
2022-08-17T04:42:05.366Z,14.87
2022-08-17T04:43:05.359Z,14.83
2022-08-17T04:44:05.323Z,14.90
2022-08-17T04:45:05.334Z,14.82
2022-08-17T04:46:05.323Z,14.85
2022-08-17T04:47:05.316Z,14.92
2022-08-17T04:48:06.317Z,15.01
2022-08-17T04:49:05.328Z,15.05
2022-08-17T04:50:05.293Z,14.93
2022-08-17T04:51:05.304Z,15.05
2022-08-17T04:52:05.287Z,15.08
2022-08-17T04:53:05.317Z,15.05
2022-08-17T04:54:05.293Z,14.99
2022-08-17T04:55:05.261Z,15.04
2022-08-17T04:56:05.258Z,15.11
2022-08-17T04:57:05.258Z,15.12
2022-08-17T04:58:05.292Z,15.12
2022-08-17T04:59:05.276Z,15.27
2022-08-17T05:00:05.223Z,15.27
2022-08-17T05:01:05.293Z,15.23
2022-08-17T05:02:05.246Z,15.43
2022-08-17T05:03:05.237Z,15.44
2022-08-17T05:04:26.893Z,15.48
2022-08-17T05:05:06.214Z,15.58
2022-08-17T05:06:05.222Z,15.63
2022-08-17T05:07:05.209Z,15.63
2022-08-17T05:08:05.246Z,15.70
2022-08-17T05:09:05.265Z,15.65
2022-08-17T05:10:05.194Z,15.76
2022-08-17T05:11:05.180Z,15.78
2022-08-17T05:12:05.192Z,15.70
2022-08-17T05:13:05.263Z,15.83
2022-08-17T05:14:05.180Z,15.84
2022-08-17T05:15:05.184Z,15.83
2022-08-17T05:16:05.156Z,15.88
2022-08-17T05:17:07.185Z,15.93
2022-08-17T05:18:05.150Z,15.90
2022-08-17T05:19:05.150Z,15.98
2022-08-17T05:20:05.242Z,16.05
2022-08-17T05:21:05.131Z,16.06
2022-08-17T05:22:05.119Z,16.10
2022-08-17T05:23:05.121Z,16.16
2022-08-17T05:24:09.691Z,16.18
2022-08-17T05:25:06.128Z,16.33
2022-08-17T05:26:05.115Z,16.39
2022-08-17T05:27:05.115Z,16.42
2022-08-17T05:28:05.090Z,16.43
2022-08-17T05:29:05.081Z,16.49
2022-08-17T05:30:05.078Z,16.52
2022-08-17T05:31:05.179Z,16.59
2022-08-17T05:32:05.055Z,16.57
2022-08-17T05:33:05.094Z,16.64
2022-08-17T05:34:05.062Z,16.76
2022-08-17T05:35:05.732Z,16.80
2022-08-17T05:36:05.048Z,16.84
2022-08-17T05:37:05.045Z,16.82
2022-08-17T05:38:05.021Z,16.82
2022-08-17T05:39:06.033Z,16.95
2022-08-17T05:40:05.082Z,16.97
2022-08-17T05:41:05.027Z,17.02
2022-08-17T05:42:05.038Z,17.02
2022-08-17T05:43:05.000Z,17.28
2022-08-17T05:44:05.404Z,17.66
2022-08-17T05:45:05.001Z,17.88
2022-08-17T05:46:04.989Z,18.09
2022-08-17T05:47:05.101Z,18.15
2022-08-17T05:48:06.030Z,18.09
2022-08-17T05:49:04.975Z,18.12
2022-08-17T05:50:09.890Z,18.08
2022-08-17T05:51:04.980Z,18.12
2022-08-17T05:52:04.974Z,18.17
2022-08-17T05:53:05.223Z,18.11
2022-08-17T05:54:04.932Z,18.11
2022-08-17T05:55:04.941Z,18.05
2022-08-17T05:56:04.971Z,18.09
2022-08-17T05:57:04.934Z,18.12
2022-08-17T05:58:05.163Z,18.15
2022-08-17T05:59:04.950Z,18.09
2022-08-17T06:00:04.920Z,18.20
2022-08-17T06:01:04.968Z,18.18
2022-08-17T06:02:04.912Z,18.12
2022-08-17T06:03:04.903Z,18.09
2022-08-17T06:04:05.014Z,18.06
2022-08-17T06:05:04.891Z,18.11
2022-08-17T06:06:04.870Z,18.27
2022-08-17T06:07:04.871Z,18.24
2022-08-17T06:08:04.874Z,18.34
2022-08-17T06:09:04.984Z,18.41
2022-08-17T06:10:04.863Z,18.52
2022-08-17T06:11:04.838Z,18.51
2022-08-17T06:12:05.742Z,18.61
2022-08-17T06:13:04.885Z,18.57
2022-08-17T06:14:04.829Z,18.60
2022-08-17T06:15:04.945Z,18.52
2022-08-17T06:16:04.859Z,18.45
2022-08-17T06:17:05.842Z,18.52
2022-08-17T06:18:04.830Z,18.45
2022-08-17T06:19:04.818Z,18.58
2022-08-17T06:20:05.041Z,18.68
2022-08-17T06:21:04.795Z,18.61
2022-08-17T06:22:04.792Z,18.74
2022-08-17T06:23:04.799Z,18.83
2022-08-17T06:24:04.789Z,18.78
2022-08-17T06:25:04.801Z,18.83
2022-08-17T06:26:05.853Z,18.97
2022-08-17T06:27:04.772Z,19.23
2022-08-17T06:28:04.754Z,19.45
2022-08-17T06:29:04.763Z,19.67
2022-08-17T06:30:04.763Z,20.07
2022-08-17T06:31:04.779Z,20.25
2022-08-17T06:32:04.727Z,20.67
2022-08-17T06:33:04.744Z,21.04
2022-08-17T06:34:04.728Z,21.44
2022-08-17T06:35:04.742Z,21.88
2022-08-17T06:36:09.244Z,22.23
2022-08-17T06:37:04.830Z,22.78
2022-08-17T06:38:04.708Z,23.17
2022-08-17T06:39:04.709Z,23.36
2022-08-17T06:40:04.763Z,23.61
2022-08-17T06:41:04.709Z,23.60
2022-08-17T06:42:04.734Z,23.25
2022-08-17T06:43:06.523Z,23.06
2022-08-17T06:44:04.686Z,23.10
2022-08-17T06:45:04.679Z,23.41
2022-08-17T06:46:04.670Z,23.94
2022-08-17T06:47:04.671Z,24.76
2022-08-17T06:48:04.775Z,25.53
2022-08-17T06:49:04.663Z,26.30
2022-08-17T06:50:04.681Z,26.95
2022-08-17T06:51:04.763Z,27.31
2022-08-17T06:52:05.617Z,27.78
2022-08-17T06:55:19.128Z,28.81
2022-08-17T06:56:18.766Z,28.83
2022-08-17T06:57:18.763Z,28.87
2022-08-17T06:58:18.748Z,28.72
2022-08-17T06:59:19.359Z,28.66
2022-08-17T07:00:19.876Z,28.16
2022-08-17T07:01:20.027Z,27.19
2022-08-17T07:02:19.833Z,26.38
2022-08-17T07:03:20.803Z,25.64
2022-08-17T07:04:19.839Z,25.04
2022-08-17T07:05:19.825Z,25.45
2022-08-17T07:06:20.805Z,25.12
2022-08-17T07:07:19.815Z,24.70
2022-08-17T07:08:19.846Z,24.51
2022-08-17T07:09:19.802Z,24.59
2022-08-17T07:10:19.807Z,24.75
2022-08-17T07:11:19.820Z,24.78
2022-08-17T07:12:19.789Z,24.81
2022-08-17T07:13:19.782Z,25.59
2022-08-17T07:14:19.776Z,26.12
2022-08-17T07:15:19.777Z,27.07
2022-08-17T07:16:19.804Z,28.00
2022-08-17T07:17:19.864Z,28.65
2022-08-17T07:18:19.732Z,29.07
2022-08-17T07:19:19.785Z,29.49
2022-08-17T07:20:19.741Z,29.74
2022-08-17T07:21:22.968Z,29.84
2022-08-17T07:22:20.769Z,30.53
2022-08-17T07:23:19.746Z,31.10
2022-08-17T07:24:29.457Z,31.42
2022-08-17T07:25:20.881Z,31.74
2022-08-17T07:26:19.718Z,32.04
2022-08-17T07:27:19.736Z,32.46
2022-08-17T07:28:19.723Z,32.99
2022-08-17T07:29:19.697Z,33.24
2022-08-17T07:30:19.695Z,32.91
2022-08-17T07:31:19.692Z,32.76
2022-08-17T07:32:19.717Z,33.01
2022-08-17T07:33:19.704Z,32.94
2022-08-17T07:34:19.689Z,32.80
2022-08-17T07:35:20.022Z,32.94
2022-08-17T07:36:19.683Z,32.60
2022-08-17T07:37:19.692Z,32.31
2022-08-17T07:38:25.701Z,32.53
2022-08-17T07:39:19.657Z,32.32
2022-08-17T07:40:19.703Z,32.48
2022-08-17T07:41:19.647Z,32.60
2022-08-17T07:42:19.642Z,32.85
2022-08-17T07:43:23.144Z,33.20
2022-08-17T07:44:19.619Z,33.35
2022-08-17T07:45:19.629Z,33.55
2022-08-17T07:46:19.615Z,33.81
2022-08-17T07:47:19.634Z,34.18
2022-08-17T07:48:19.624Z,34.22
2022-08-17T07:49:19.675Z,34.18
2022-08-17T07:50:22.698Z,34.47
2022-08-17T07:51:20.614Z,33.97
2022-08-17T07:52:24.806Z,33.63
2022-08-17T07:53:19.585Z,34.35
2022-08-17T07:54:19.582Z,34.56
2022-08-17T07:55:19.616Z,34.44
2022-08-17T07:56:19.575Z,34.87
2022-08-17T07:57:19.574Z,35.05
2022-08-17T07:58:19.553Z,35.26
2022-08-17T07:59:23.049Z,35.23
2022-08-17T08:00:19.670Z,34.75
2022-08-17T08:01:20.550Z,34.85
2022-08-17T08:02:19.598Z,34.66
2022-08-17T08:03:19.625Z,34.56
2022-08-17T08:04:25.841Z,33.69
2022-08-17T08:05:48.856Z,32.65
2022-08-17T08:06:20.520Z,32.92
2022-08-17T08:07:19.548Z,33.42
2022-08-17T08:08:19.528Z,33.97
2022-08-17T08:09:19.519Z,34.37
2022-08-17T08:10:19.486Z,34.59
2022-08-17T08:11:19.513Z,35.02
2022-08-17T08:12:19.515Z,35.26
2022-08-17T08:13:19.519Z,35.48
2022-08-17T08:14:19.477Z,35.54
2022-08-17T08:15:19.479Z,35.44
2022-08-17T08:16:19.476Z,35.23
2022-08-17T08:17:19.495Z,34.60
2022-08-17T08:18:19.499Z,34.29
2022-08-17T08:19:21.167Z,34.00
2022-08-17T08:20:51.485Z,34.47
2022-08-17T08:21:20.451Z,34.38
2022-08-17T08:22:19.456Z,34.48
2022-08-17T08:23:19.464Z,34.70
2022-08-17T08:24:19.443Z,34.86
2022-08-17T08:25:19.431Z,34.70
2022-08-17T08:26:19.414Z,34.13
2022-08-17T08:27:19.447Z,33.85
2022-08-17T08:28:19.447Z,33.88
2022-08-17T08:29:19.412Z,33.95
2022-08-17T08:30:19.420Z,33.91
2022-08-17T08:31:19.400Z,34.16
2022-08-17T08:32:19.404Z,34.20
2022-08-17T08:33:19.568Z,34.07
2022-08-17T08:34:55.877Z,33.78
2022-08-17T08:35:19.389Z,34.40
2022-08-17T08:37:12.668Z,34.67
2022-08-17T08:37:30.370Z,35.47
2022-08-17T08:38:20.377Z,36.30
2022-08-17T08:39:19.357Z,37.13
2022-08-17T08:40:19.387Z,36.09
2022-08-17T08:41:19.348Z,36.19
2022-08-17T08:42:19.337Z,36.29
2022-08-17T08:43:19.604Z,36.64
2022-08-17T08:44:19.412Z,36.25
2022-08-17T08:45:19.348Z,34.78
2022-08-17T08:46:19.669Z,34.44
2022-08-17T08:47:19.324Z,33.86
2022-08-17T08:48:52.890Z,33.73
2022-08-17T08:49:29.705Z,34.10
2022-08-17T08:50:37.666Z,33.89
2022-08-17T08:51:19.290Z,32.60
2022-08-17T08:52:19.285Z,31.66
2022-08-17T08:53:19.301Z,31.68
2022-08-17T08:54:26.213Z,32.55
2022-08-17T08:55:19.285Z,32.99
2022-08-17T08:56:19.277Z,33.66
2022-08-17T08:57:25.612Z,33.13
2022-08-17T08:58:41.029Z,32.97
2022-08-17T08:59:20.275Z,33.01
2022-08-17T09:00:19.402Z,32.92
2022-08-17T09:01:19.324Z,32.42
2022-08-17T09:02:19.351Z,32.24
2022-08-17T09:03:19.244Z,32.01
2022-08-17T09:04:24.542Z,31.46
2022-08-17T09:05:20.372Z,31.29
2022-08-17T09:06:37.889Z,32.17
2022-08-17T09:07:20.246Z,32.45
2022-08-17T09:08:19.237Z,32.14
2022-08-17T09:09:19.223Z,31.64
2022-08-17T09:10:19.193Z,31.15
2022-08-17T09:11:19.244Z,31.05
2022-08-17T09:12:19.254Z,31.08
2022-08-17T09:13:19.210Z,30.90
2022-08-17T09:14:21.484Z,30.53
2022-08-17T09:15:19.209Z,30.55
2022-08-17T09:16:19.202Z,30.40
2022-08-17T09:17:19.220Z,30.48
2022-08-17T09:19:00.039Z,30.35
2022-08-17T09:19:21.155Z,30.13
2022-08-17T09:20:28.388Z,30.13
2022-08-17T09:21:20.345Z,30.26
2022-08-17T09:22:19.182Z,30.36
2022-08-17T09:23:19.165Z,30.68
2022-08-17T09:24:20.756Z,31.24
2022-08-17T09:25:19.125Z,31.54
2022-08-17T09:26:19.128Z,31.49
2022-08-17T09:27:19.210Z,31.34
2022-08-17T09:28:19.133Z,31.51
2022-08-17T09:29:19.113Z,31.38
2022-08-17T09:30:19.116Z,31.52
2022-08-17T09:31:19.109Z,32.38
2022-08-17T09:32:19.212Z,32.72
2022-08-17T09:33:19.226Z,33.16
2022-08-17T09:34:19.108Z,34.60
2022-08-17T09:35:19.140Z,35.72
2022-08-17T09:36:19.091Z,36.54
2022-08-17T09:37:19.092Z,37.16
2022-08-17T09:38:19.204Z,35.87
2022-08-17T09:39:19.075Z,35.72
2022-08-17T09:40:19.260Z,34.82
2022-08-17T09:41:19.086Z,35.02
2022-08-17T09:42:19.103Z,34.95
2022-08-17T09:43:19.085Z,34.32
2022-08-17T09:44:23.280Z,33.95
2022-08-17T09:45:51.954Z,33.81
2022-08-17T09:46:19.008Z,33.64
2022-08-17T09:47:19.027Z,33.48
2022-08-17T09:48:19.016Z,33.22
2022-08-17T09:49:24.619Z,32.94
2022-08-17T09:50:19.004Z,32.42
2022-08-17T09:51:19.009Z,32.11
2022-08-17T09:52:19.016Z,31.59
2022-08-17T09:53:18.987Z,31.63
2022-08-17T09:54:38.160Z,31.91
2022-08-17T09:55:19.975Z,31.60
2022-08-17T09:56:18.964Z,31.63
2022-08-17T09:57:29.899Z,31.46
2022-08-17T09:58:19.953Z,31.75
2022-08-17T09:59:18.956Z,31.66
2022-08-17T10:00:19.001Z,31.14
2022-08-17T10:01:18.993Z,31.17
2022-08-17T10:02:18.924Z,31.37
2022-08-17T10:03:18.948Z,31.64
2022-08-17T10:04:20.342Z,31.71
2022-08-17T10:05:19.951Z,31.66
2022-08-17T10:06:22.101Z,31.84
2022-08-17T10:07:18.914Z,31.76
2022-08-17T10:08:21.838Z,31.79
2022-08-17T10:09:18.917Z,31.94
2022-08-17T10:10:18.923Z,31.95
2022-08-17T10:11:18.927Z,31.87
2022-08-17T10:12:18.909Z,31.79
2022-08-17T10:13:18.922Z,31.76
2022-08-17T10:14:36.584Z,31.61
2022-08-17T10:15:19.934Z,31.45
2022-08-17T10:16:18.881Z,31.24
2022-08-17T10:17:18.865Z,31.38
2022-08-17T10:18:18.874Z,31.71
2022-08-17T10:19:18.847Z,31.81
2022-08-17T10:20:18.863Z,31.66
2022-08-17T10:21:18.889Z,31.39
2022-08-17T10:22:35.244Z,31.26
2022-08-17T10:23:19.845Z,31.22
2022-08-17T10:24:18.830Z,31.12
2022-08-17T10:25:22.695Z,31.14
2022-08-17T10:26:18.846Z,30.86
2022-08-17T10:27:18.842Z,30.49
2022-08-17T10:28:19.859Z,30.20
2022-08-17T10:29:18.812Z,29.89
2022-08-17T10:30:18.811Z,29.83
2022-08-17T10:31:34.269Z,29.74
2022-08-17T10:32:20.853Z,29.71
2022-08-17T10:33:18.799Z,29.77
2022-08-17T10:34:18.784Z,29.86
2022-08-17T10:35:18.798Z,29.77
2022-08-17T10:36:18.787Z,29.80
2022-08-17T10:37:18.779Z,29.86
2022-08-17T10:38:18.779Z,29.77
2022-08-17T10:39:18.769Z,29.86
2022-08-17T10:40:18.773Z,29.91
2022-08-17T10:41:18.758Z,29.91
2022-08-17T10:42:32.391Z,29.66
2022-08-17T10:43:19.758Z,29.73
2022-08-17T10:44:37.210Z,29.91
2022-08-17T10:45:18.739Z,30.17
2022-08-17T10:46:31.297Z,30.18
2022-08-17T10:47:19.747Z,30.28
2022-08-17T10:48:18.710Z,30.07
2022-08-17T10:49:18.711Z,29.93
2022-08-17T10:50:18.717Z,29.86
2022-08-17T10:51:18.705Z,29.91
2022-08-17T10:52:18.697Z,30.02
2022-08-17T10:53:20.031Z,30.07
2022-08-17T10:54:19.682Z,30.10
2022-08-17T10:55:18.687Z,30.10
2022-08-17T10:56:18.683Z,30.10
2022-08-17T10:57:18.668Z,30.10
2022-08-17T10:58:18.793Z,30.10
2022-08-17T10:59:18.667Z,30.10
2022-08-17T11:00:18.663Z,29.99
2022-08-17T11:01:18.702Z,29.93
2022-08-17T11:02:18.641Z,30.03
2022-08-17T11:03:18.648Z,30.02
2022-08-17T11:04:18.704Z,29.95
2022-08-17T11:05:18.655Z,30.08
2022-08-17T11:06:18.615Z,29.92
2022-08-17T11:07:18.660Z,29.80
2022-08-17T11:08:18.628Z,29.81
2022-08-17T11:09:18.646Z,29.86
2022-08-17T11:10:18.598Z,29.80
2022-08-17T11:11:18.602Z,29.77
2022-08-17T11:12:18.597Z,29.81
2022-08-17T11:13:18.601Z,29.76
2022-08-17T11:14:18.585Z,29.65
2022-08-17T11:15:18.706Z,29.56
2022-08-17T11:16:18.577Z,29.56
2022-08-17T11:17:18.592Z,29.59
2022-08-17T11:18:18.556Z,29.47
2022-08-17T11:19:18.559Z,29.33
2022-08-17T11:20:18.601Z,29.28
2022-08-17T11:21:18.538Z,29.17
2022-08-17T11:22:18.551Z,29.24
2022-08-17T11:23:18.551Z,29.28
2022-08-17T11:24:18.535Z,29.12
2022-08-17T11:25:18.528Z,29.17
2022-08-17T11:26:18.551Z,29.12
2022-08-17T11:27:18.511Z,29.02
2022-08-17T11:28:18.505Z,29.02
2022-08-17T11:29:18.505Z,28.87
2022-08-17T11:30:18.501Z,28.86
2022-08-17T11:31:18.507Z,28.98
2022-08-17T11:32:18.487Z,29.00
2022-08-17T11:33:18.483Z,28.90
2022-08-17T11:34:18.493Z,29.00
2022-08-17T11:35:18.487Z,29.10
2022-08-17T11:36:18.468Z,29.07
2022-08-17T11:37:18.510Z,29.18
2022-08-17T11:38:18.456Z,29.17
2022-08-17T11:39:18.438Z,29.04
2022-08-17T11:40:18.521Z,29.06
2022-08-17T11:41:18.437Z,29.10
2022-08-17T11:42:18.470Z,29.12
2022-08-17T11:43:18.435Z,29.43
2022-08-17T11:44:18.418Z,29.43
2022-08-17T11:45:31.737Z,29.61
2022-08-17T11:46:18.421Z,29.62
2022-08-17T11:47:18.409Z,29.84
2022-08-17T11:48:27.635Z,29.95
2022-08-17T11:49:20.414Z,30.17
2022-08-17T11:50:18.403Z,30.17
2022-08-17T11:51:18.387Z,30.28
2022-08-17T11:52:18.404Z,30.18
2022-08-17T11:53:18.488Z,30.26
2022-08-17T11:54:34.770Z,30.21
2022-08-17T11:55:35.470Z,30.15
2022-08-17T11:56:18.370Z,30.08
2022-08-17T11:57:18.348Z,30.00
2022-08-17T11:58:18.349Z,30.00
2022-08-17T11:59:18.377Z,30.05
2022-08-17T12:00:18.347Z,29.87
2022-08-17T12:01:18.349Z,29.76
2022-08-17T12:02:18.337Z,29.74
2022-08-17T12:03:18.392Z,29.73
2022-08-17T12:04:18.512Z,29.68
2022-08-17T12:05:18.316Z,29.70
2022-08-17T12:06:18.321Z,29.65
2022-08-17T12:07:18.302Z,29.65
2022-08-17T12:08:18.311Z,29.71
2022-08-17T12:09:18.300Z,29.54
2022-08-17T12:10:18.399Z,29.34
2022-08-17T12:11:18.289Z,29.28
2022-08-17T12:12:18.287Z,29.19
2022-08-17T12:13:18.295Z,29.07
2022-08-17T12:14:22.446Z,28.94
2022-08-17T12:15:19.284Z,28.91
2022-08-17T12:16:18.254Z,28.87
2022-08-17T12:17:25.881Z,28.96
2022-08-17T12:18:19.240Z,28.93
2022-08-17T12:19:18.235Z,29.10
2022-08-17T12:20:18.246Z,29.06
2022-08-17T12:21:18.331Z,29.13
2022-08-17T12:22:19.258Z,29.10
2022-08-17T12:23:18.207Z,29.07
2022-08-17T12:24:18.217Z,29.04
2022-08-17T12:25:18.228Z,29.03
2022-08-17T12:26:18.223Z,28.96
2022-08-17T12:27:18.204Z,28.84
2022-08-17T12:28:20.095Z,28.81
2022-08-17T12:29:35.182Z,28.81
2022-08-17T12:30:19.299Z,28.72
2022-08-17T12:31:18.179Z,28.74
2022-08-17T12:32:18.182Z,28.54
2022-08-17T12:33:27.902Z,28.61
2022-08-17T12:34:18.170Z,28.50
2022-08-17T12:35:18.146Z,28.40
2022-08-17T12:36:18.267Z,28.50
2022-08-17T12:37:18.137Z,28.35
2022-08-17T12:38:32.263Z,28.25
2022-08-17T12:39:21.204Z,28.06
2022-08-17T12:40:18.120Z,28.05
2022-08-17T12:41:18.158Z,28.07
2022-08-17T12:42:18.126Z,28.05
2022-08-17T12:43:18.119Z,27.93
2022-08-17T12:44:18.111Z,28.05
2022-08-17T12:45:18.104Z,27.98
2022-08-17T12:46:18.114Z,28.16
2022-08-17T12:47:21.974Z,28.13
2022-08-17T12:48:19.089Z,28.15
2022-08-17T12:49:18.068Z,28.16
2022-08-17T12:50:28.764Z,28.22
2022-08-17T12:51:18.058Z,28.20
2022-08-17T12:52:18.067Z,28.32
2022-08-17T12:53:18.059Z,28.35
2022-08-17T12:54:18.040Z,28.40